sensor_id;sensor_type;location;lat;lon;timestamp;pressure;altitude;pressure_sealevel;temperature;humidity
9229;BME280;4649;42.644;23.284;2023-05-01T00:02:11;92960.09;;;11.26;81.60
9229;BME280;4649;42.644;23.284;2023-05-01T00:05:05;92849.28;;;10.50;82.23
9229;BME280;4649;42.644;23.284;2023-05-01T00:07:53;93048.09;;;11.93;82.39
9229;BME280;4649;42.644;23.284;2023-05-01T00:10:21;93065.88;;;11.83;83.35
9229;BME280;4649;42.644;23.284;2023-05-01T00:12:54;93049.84;;;11.85;83.43
9229;BME280;4649;42.644;23.284;2023-05-01T00:15:24;92958.91;;;11.16;83.72
9229;BME280;4649;42.644;23.284;2023-05-01T00:17:55;92913.19;;;10.86;83.54
9229;BME280;4649;42.644;23.284;2023-05-01T00:20:36;92852.50;;;10.43;83.67
9229;BME280;4649;42.644;23.284;2023-05-01T00:23:12;92905.59;;;10.73;83.46
9229;BME280;4649;42.644;23.284;2023-05-01T00:25:53;92932.38;;;10.88;83.41
9229;BME280;4649;42.644;23.284;2023-05-01T00:32:03;93051.41;;;11.64;84.60
9229;BME280;4649;42.644;23.284;2023-05-01T00:34:45;92881.31;;;10.35;85.03
9229;BME280;4649;42.644;23.284;2023-05-01T00:37:27;93048.19;;;11.65;84.92
9229;BME280;4649;42.644;23.284;2023-05-01T00:40:18;93054.38;;;11.66;85.51
9229;BME280;4649;42.644;23.284;2023-05-01T00:43:05;92873.91;;;10.35;85.72
9229;BME280;4649;42.644;23.284;2023-05-01T00:45:51;92864.59;;;10.31;85.96
9229;BME280;4649;42.644;23.284;2023-05-01T00:55:01;93061.00;;;11.59;86.37
9229;BME280;4649;42.644;23.284;2023-05-01T00:57:31;93018.22;;;11.25;86.05
9229;BME280;4649;42.644;23.284;2023-05-01T01:00:12;92866.56;;;10.25;86.49
9229;BME280;4649;42.644;23.284;2023-05-01T01:02:53;93071.59;;;11.74;86.08
9229;BME280;4649;42.644;23.284;2023-05-01T01:05:39;92879.56;;;10.32;86.40
9229;BME280;4649;42.644;23.284;2023-05-01T01:08:25;92939.06;;;10.65;86.32
9229;BME280;4649;42.644;23.284;2023-05-01T01:11:10;92956.53;;;10.75;86.63
9229;BME280;4649;42.644;23.284;2023-05-01T01:13:46;93074.84;;;11.56;87.44
9229;BME280;4649;42.644;23.284;2023-05-01T01:16:34;92870.25;;;10.11;87.32
9229;BME280;4649;42.644;23.284;2023-05-01T01:19:57;92875.41;;;10.20;87.08
9229;BME280;4649;42.644;23.284;2023-05-01T01:22:36;93085.91;;;11.58;87.83
9229;BME280;4649;42.644;23.284;2023-05-01T01:25:46;92958.25;;;10.67;87.88
9229;BME280;4649;42.644;23.284;2023-05-01T01:29:03;93087.16;;;11.52;87.90
9229;BME280;4649;42.644;23.284;2023-05-01T01:32:20;93000.78;;;10.88;88.52
9229;BME280;4649;42.644;23.284;2023-05-01T01:35:25;92931.19;;;10.45;88.30
9229;BME280;4649;42.644;23.284;2023-05-01T01:41:22;92885.25;;;10.12;88.30
9229;BME280;4649;42.644;23.284;2023-05-01T01:44:21;93087.41;;;11.37;89.80
9229;BME280;4649;42.644;23.284;2023-05-01T01:47:28;92962.19;;;10.55;88.88
9229;BME280;4649;42.644;23.284;2023-05-01T01:50:05;93086.66;;;11.42;89.42
9229;BME280;4649;42.644;23.284;2023-05-01T01:58:59;92907.63;;;10.24;88.94
9229;BME280;4649;42.644;23.284;2023-05-01T02:01:35;93016.53;;;11.00;88.67
9229;BME280;4649;42.644;23.284;2023-05-01T02:04:19;93066.25;;;11.19;91.00
9229;BME280;4649;42.644;23.284;2023-05-01T02:07:14;92918.44;;;10.13;92.05
9229;BME280;4649;42.644;23.284;2023-05-01T02:09:53;93077.81;;;11.20;91.79
9229;BME280;4649;42.644;23.284;2023-05-01T02:12:38;93070.94;;;11.19;92.03
9229;BME280;4649;42.644;23.284;2023-05-01T02:56:02;93014.09;;;10.37;92.80
9229;BME280;4649;42.644;23.284;2023-05-01T02:58:44;93072.69;;;10.84;93.70
9229;BME280;4649;42.644;23.284;2023-05-01T03:01:17;92943.44;;;9.86;93.61
9229;BME280;4649;42.644;23.284;2023-05-01T03:06:49;92948.34;;;9.87;92.94
9229;BME280;4649;42.644;23.284;2023-05-01T03:09:31;92930.88;;;9.77;93.63
9229;BME280;4649;42.644;23.284;2023-05-01T04:09:09;93043.69;;;9.30;100.00
9229;BME280;4649;42.644;23.284;2023-05-01T04:12:39;93123.44;;;10.09;100.00
9229;BME280;4649;42.644;23.284;2023-05-01T04:16:16;92945.47;;;9.22;100.00
9229;BME280;4649;42.644;23.284;2023-05-01T04:40:11;92987.84;;;18.60;53.69
9229;BME280;4649;42.644;23.284;2023-05-01T04:42:42;92974.81;;;19.11;50.80
9229;BME280;4649;42.644;23.284;2023-05-01T04:45:31;93127.16;;;20.21;49.44
9229;BME280;4649;42.644;23.284;2023-05-01T04:47:58;93133.16;;;20.42;48.63
9229;BME280;4649;42.644;23.284;2023-05-01T04:50:26;93135.16;;;20.57;47.72
9229;BME280;4649;42.644;23.284;2023-05-01T04:52:53;93064.69;;;19.85;48.77
9229;BME280;4649;42.644;23.284;2023-05-01T04:55:22;93151.63;;;20.72;47.22
9229;BME280;4649;42.644;23.284;2023-05-01T04:57:49;93135.22;;;21.82;45.01
9229;BME280;4649;42.644;23.284;2023-05-01T05:00:17;93089.19;;;22.57;41.85
9229;BME280;4649;42.644;23.284;2023-05-01T05:02:45;93097.28;;;22.89;41.15
9229;BME280;4649;42.644;23.284;2023-05-01T05:05:12;93138.16;;;23.50;40.02
9229;BME280;4649;42.644;23.284;2023-05-01T05:07:39;93097.81;;;23.38;39.67
9229;BME280;4649;42.644;23.284;2023-05-01T05:10:07;93071.78;;;23.67;38.69
9229;BME280;4649;42.644;23.284;2023-05-01T05:12:35;93143.25;;;24.33;37.54
9229;BME280;4649;42.644;23.284;2023-05-01T05:15:02;93074.44;;;23.48;38.47
9229;BME280;4649;42.644;23.284;2023-05-01T05:17:29;93060.13;;;22.56;40.44
9229;BME280;4649;42.644;23.284;2023-05-01T05:19:59;93025.03;;;22.15;40.93
9229;BME280;4649;42.644;23.284;2023-05-01T05:22:27;93133.19;;;23.06;40.36
9229;BME280;4649;42.644;23.284;2023-05-01T05:24:57;93144.19;;;23.39;39.64
9229;BME280;4649;42.644;23.284;2023-05-01T05:27:28;93174.66;;;23.92;38.90
9229;BME280;4649;42.644;23.284;2023-05-01T05:30:02;93166.84;;;23.72;38.98
9229;BME280;4649;42.644;23.284;2023-05-01T05:32:32;93160.38;;;24.22;37.45
9229;BME280;4649;42.644;23.284;2023-05-01T05:35:00;93082.25;;;23.95;36.61
9229;BME280;4649;42.644;23.284;2023-05-01T05:37:28;93185.22;;;24.84;36.17
9229;BME280;4649;42.644;23.284;2023-05-01T05:39:55;93025.31;;;23.83;36.08
9229;BME280;4649;42.644;23.284;2023-05-01T05:42:22;93181.34;;;25.34;35.26
9229;BME280;4649;42.644;23.284;2023-05-01T05:44:49;93083.47;;;24.84;35.02
9229;BME280;4649;42.644;23.284;2023-05-01T05:47:18;93140.53;;;27.03;31.73
9229;BME280;4649;42.644;23.284;2023-05-01T05:49:46;93176.66;;;27.03;31.95
9229;BME280;4649;42.644;23.284;2023-05-01T05:52:13;93147.88;;;26.28;33.34
9229;BME280;4649;42.644;23.284;2023-05-01T05:54:40;93169.56;;;27.11;32.14
9229;BME280;4649;42.644;23.284;2023-05-01T05:57:07;93084.81;;;27.33;30.82
9229;BME280;4649;42.644;23.284;2023-05-01T05:59:34;93137.25;;;26.85;31.95
9229;BME280;4649;42.644;23.284;2023-05-01T06:02:01;93147.91;;;27.95;30.22
9229;BME280;4649;42.644;23.284;2023-05-01T06:04:32;93164.41;;;28.14;29.85
9229;BME280;4649;42.644;23.284;2023-05-01T06:06:59;93128.66;;;27.55;31.14
9229;BME280;4649;42.644;23.284;2023-05-01T06:09:26;93190.88;;;27.18;32.16
9229;BME280;4649;42.644;23.284;2023-05-01T06:11:53;93193.34;;;26.23;33.10
9229;BME280;4649;42.644;23.284;2023-05-01T06:14:20;93198.09;;;26.02;33.35
9229;BME280;4649;42.644;23.284;2023-05-01T06:16:47;93136.28;;;25.24;34.14
9229;BME280;4649;42.644;23.284;2023-05-01T06:19:17;93202.06;;;25.52;34.84
9229;BME280;4649;42.644;23.284;2023-05-01T06:21:46;93154.09;;;25.12;34.71
9229;BME280;4649;42.644;23.284;2023-05-01T06:24:18;93203.22;;;25.68;34.60
9229;BME280;4649;42.644;23.284;2023-05-01T06:26:47;93200.59;;;25.32;35.06
9229;BME280;4649;42.644;23.284;2023-05-01T06:29:14;93208.09;;;24.13;36.78
9229;BME280;4649;42.644;23.284;2023-05-01T06:31:41;93169.41;;;23.27;38.78
9229;BME280;4649;42.644;23.284;2023-05-01T06:34:08;93122.34;;;22.50;39.93
9229;BME280;4649;42.644;23.284;2023-05-01T06:36:36;93127.41;;;22.77;40.20
9229;BME280;4649;42.644;23.284;2023-05-01T06:39:08;93096.72;;;22.40;41.29
9229;BME280;4649;42.644;23.284;2023-05-01T06:41:36;93192.31;;;23.20;41.12
9229;BME280;4649;42.644;23.284;2023-05-01T06:44:06;93141.22;;;22.36;40.24
9229;BME280;4649;42.644;23.284;2023-05-01T06:46:33;93059.91;;;21.55;41.18
9229;BME280;4649;42.644;23.284;2023-05-01T06:49:01;93119.75;;;21.54;42.52
9229;BME280;4649;42.644;23.284;2023-05-01T06:51:28;93217.81;;;22.21;42.10
9229;BME280;4649;42.644;23.284;2023-05-01T06:54:14;93205.34;;;22.85;41.18
9229;BME280;4649;42.644;23.284;2023-05-01T06:56:47;93088.91;;;21.48;41.65
9229;BME280;4649;42.644;23.284;2023-05-01T06:59:18;93212.84;;;22.27;42.38
9229;BME280;4649;42.644;23.284;2023-05-01T07:02:06;93079.09;;;20.37;44.41
9229;BME280;4649;42.644;23.284;2023-05-01T07:04:38;93218.84;;;22.57;41.54
9229;BME280;4649;42.644;23.284;2023-05-01T07:07:24;93178.38;;;22.11;41.78
9229;BME280;4649;42.644;23.284;2023-05-01T07:13:30;93184.88;;;21.20;43.33
9229;BME280;4649;42.644;23.284;2023-05-01T07:15:58;93165.00;;;21.37;44.25
9229;BME280;4649;42.644;23.284;2023-05-01T07:18:35;93204.09;;;21.42;44.01
9229;BME280;4649;42.644;23.284;2023-05-01T07:21:02;93111.44;;;20.83;44.64
9229;BME280;4649;42.644;23.284;2023-05-01T07:23:30;93155.91;;;21.90;42.50
9229;BME280;4649;42.644;23.284;2023-05-01T07:25:58;93180.00;;;22.14;42.25
9229;BME280;4649;42.644;23.284;2023-05-01T07:28:27;93061.31;;;21.88;39.68
9229;BME280;4649;42.644;23.284;2023-05-01T07:30:55;93195.75;;;22.69;40.08
9229;BME280;4649;42.644;23.284;2023-05-01T07:33:22;93224.06;;;23.11;40.32
9229;BME280;4649;42.644;23.284;2023-05-01T07:35:50;93119.84;;;22.44;39.01
9229;BME280;4649;42.644;23.284;2023-05-01T07:38:18;93148.97;;;22.38;39.25
9229;BME280;4649;42.644;23.284;2023-05-01T07:40:47;93221.28;;;22.94;39.78
9229;BME280;4649;42.644;23.284;2023-05-01T07:43:17;93228.50;;;22.90;40.56
9229;BME280;4649;42.644;23.284;2023-05-01T07:45:57;93217.28;;;22.47;41.49
9229;BME280;4649;42.644;23.284;2023-05-01T07:48:36;93224.03;;;22.94;40.11
9229;BME280;4649;42.644;23.284;2023-05-01T07:51:04;93192.22;;;22.52;40.48
9229;BME280;4649;42.644;23.284;2023-05-01T07:53:36;93140.69;;;22.13;40.94
9229;BME280;4649;42.644;23.284;2023-05-01T07:56:08;93230.84;;;22.52;39.75
9229;BME280;4649;42.644;23.284;2023-05-01T07:58:41;93133.38;;;21.84;39.07
9229;BME280;4649;42.644;23.284;2023-05-01T08:01:15;93103.78;;;21.85;39.33
9229;BME280;4649;42.644;23.284;2023-05-01T08:03:42;93148.53;;;22.17;39.63
9229;BME280;4649;42.644;23.284;2023-05-01T08:06:09;93164.75;;;22.78;36.89
9229;BME280;4649;42.644;23.284;2023-05-01T08:08:39;93227.31;;;23.00;38.19
9229;BME280;4649;42.644;23.284;2023-05-01T08:11:08;93178.78;;;21.76;40.89
9229;BME280;4649;42.644;23.284;2023-05-01T08:13:54;93197.38;;;21.21;42.14
9229;BME280;4649;42.644;23.284;2023-05-01T08:22:52;93229.72;;;22.31;40.97
9229;BME280;4649;42.644;23.284;2023-05-01T08:25:28;93162.97;;;22.32;38.66
9229;BME280;4649;42.644;23.284;2023-05-01T08:31:34;93219.94;;;21.27;43.87
9229;BME280;4649;42.644;23.284;2023-05-01T08:34:49;93042.34;;;20.11;36.85
9229;BME280;4649;42.644;23.284;2023-05-01T08:47:38;93180.44;;;22.03;36.25
9229;BME280;4649;42.644;23.284;2023-05-01T09:00:46;93214.19;;;20.64;38.68
9229;BME280;4649;42.644;23.284;2023-05-01T09:03:58;93078.59;;;20.24;37.88
9229;BME280;4649;42.644;23.284;2023-05-01T09:07:10;93157.28;;;22.06;36.67
9229;BME280;4649;42.644;23.284;2023-05-01T09:09:53;93116.03;;;21.67;35.89
9229;BME280;4649;42.644;23.284;2023-05-01T09:16:10;93014.59;;;21.73;34.59
9229;BME280;4649;42.644;23.284;2023-05-01T09:18:49;93204.16;;;23.13;36.21
9229;BME280;4649;42.644;23.284;2023-05-01T09:21:26;93063.66;;;21.91;34.12
9229;BME280;4649;42.644;23.284;2023-05-01T09:24:26;93144.09;;;22.21;35.34
9229;BME280;4649;42.644;23.284;2023-05-01T09:27:22;93210.44;;;22.72;35.49
9229;BME280;4649;42.644;23.284;2023-05-01T09:33:05;93192.25;;;22.86;36.24
9229;BME280;4649;42.644;23.284;2023-05-01T09:35:52;93131.66;;;22.37;36.74
9229;BME280;4649;42.644;23.284;2023-05-01T09:38:32;93096.78;;;21.84;35.21
9229;BME280;4649;42.644;23.284;2023-05-01T09:41:04;93146.59;;;21.86;35.66
9229;BME280;4649;42.644;23.284;2023-05-01T09:46:48;93216.47;;;21.19;36.24
9229;BME280;4649;42.644;23.284;2023-05-01T09:52:26;93206.63;;;19.90;39.29
9229;BME280;4649;42.644;23.284;2023-05-01T09:59:13;93212.16;;;20.86;39.77
9229;BME280;4649;42.644;23.284;2023-05-01T10:01:58;93127.50;;;20.40;38.05
9229;BME280;4649;42.644;23.284;2023-05-01T10:04:47;93095.78;;;20.39;38.55
9229;BME280;4649;42.644;23.284;2023-05-01T10:11:04;93204.28;;;20.31;38.37
9229;BME280;4649;42.644;23.284;2023-05-01T10:20:41;93122.59;;;21.00;40.69
9229;BME280;4649;42.644;23.284;2023-05-01T10:23:53;93165.38;;;21.33;39.64
9229;BME280;4649;42.644;23.284;2023-05-01T10:26:41;93172.06;;;21.15;40.14
9229;BME280;4649;42.644;23.284;2023-05-01T10:33:02;93198.19;;;20.99;39.87
9229;BME280;4649;42.644;23.284;2023-05-01T10:49:03;93204.78;;;19.85;41.59
9229;BME280;4649;42.644;23.284;2023-05-01T11:28:46;93219.25;;;19.28;45.03
9229;BME280;4649;42.644;23.284;2023-05-01T11:31:38;93223.34;;;19.42;45.53
9229;BME280;4649;42.644;23.284;2023-05-01T11:37:44;93141.53;;;18.97;47.58
9229;BME280;4649;42.644;23.284;2023-05-01T11:41:00;93121.78;;;18.99;47.71
9229;BME280;4649;42.644;23.284;2023-05-01T11:43:33;93204.00;;;19.62;47.90
9229;BME280;4649;42.644;23.284;2023-05-01T11:49:52;93161.88;;;19.02;69.52
9229;BME280;4649;42.644;23.284;2023-05-01T11:53:09;93081.97;;;18.28;69.96
9229;BME280;4649;42.644;23.284;2023-05-01T11:56:26;93187.09;;;18.65;66.84
9229;BME280;4649;42.644;23.284;2023-05-01T11:59:14;93084.81;;;17.46;60.43
9229;BME280;4649;42.644;23.284;2023-05-01T12:05:27;93135.84;;;16.77;52.44
9229;BME280;4649;42.644;23.284;2023-05-01T12:08:25;93230.16;;;16.84;52.17
9229;BME280;4649;42.644;23.284;2023-05-01T12:16:22;93014.09;;;15.71;51.15
9229;BME280;4649;42.644;23.284;2023-05-01T12:47:58;93056.06;;;16.20;45.92
9229;BME280;4649;42.644;23.284;2023-05-01T13:00:32;93019.84;;;15.55;47.59
9229;BME280;4649;42.644;23.284;2023-05-01T13:03:43;93061.94;;;16.37;46.45
9229;BME280;4649;42.644;23.284;2023-05-01T13:06:38;93203.44;;;17.03;46.34
9229;BME280;4649;42.644;23.284;2023-05-01T13:12:13;93099.00;;;16.58;41.63
9229;BME280;4649;42.644;23.284;2023-05-01T13:22:28;93048.59;;;16.20;44.73
9229;BME280;4649;42.644;23.284;2023-05-01T13:25:28;93085.88;;;16.56;44.80
9229;BME280;4649;42.644;23.284;2023-05-01T13:28:16;93220.25;;;17.32;46.30
9229;BME280;4649;42.644;23.284;2023-05-01T13:33:56;93231.00;;;17.84;49.30
9229;BME280;4649;42.644;23.284;2023-05-01T15:20:54;93212.47;;;16.98;51.41
9229;BME280;4649;42.644;23.284;2023-05-01T15:23:56;93041.69;;;15.81;51.47
9229;BME280;4649;42.644;23.284;2023-05-01T15:27:16;93038.00;;;15.65;50.88
9229;BME280;4649;42.644;23.284;2023-05-01T15:30:45;93222.78;;;16.79;50.41
9229;BME280;4649;42.644;23.284;2023-05-01T15:36:45;93223.53;;;16.79;50.95
9229;BME280;4649;42.644;23.284;2023-05-01T15:42:42;93117.19;;;16.04;50.92
9229;BME280;4649;42.644;23.284;2023-05-01T15:46:22;93234.25;;;16.64;51.40
9229;BME280;4649;42.644;23.284;2023-05-01T16:05:43;93182.47;;;16.33;50.75
9229;BME280;4649;42.644;23.284;2023-05-01T16:09:02;93130.50;;;15.94;50.87
